< < Back
Terminal Aerodrome Forecast


Current Version              Previous Versions:   1  2  3  4  5  6  7  8  9  

Terminal Aerodrome Forecast

893
FTUS42 KCAE 292300
TAFCAE
TAF
KCAE 292321Z 3000/3024 21006KT P6SM BKN100
     FM300600 24010KT P6SM OVC040
     FM301000 28010KT P6SM SCT100
     FM301400 32014G21KT P6SM SKC=

Latest METAR

651
SAUS80 KWBC 300200 CCA
MTRCAE
METAR KCAE 300156Z 00000KT 10SM OVC100 09/M01 A3014 RMK AO2 RAB40E52
SLP206 P0000 T00941006


USA.gov is the U.S. government's official web portal to all federal, state and local government web resources and services.